»·PEaware :: N201TC KBUR-KLAS

N201TC :: KBUR-KLAS

FLIGHT INFORMATION

Flight Status: Arrived
Operator: Privately registered:
United States
More flights under this callsign
Pilot: Timothy C. (29112)
Aircraft: CESSNA 172 SKYHAWK
(C172)
More flights by this aircraft type
Origin: KBUR Bob Hope-Burbank
United States
Destination: KLAS McCarran Intl
United States
More flights between these airports :: More routes between these airports
Route: +VNY3 DAG CRESO4
File this flight plan on PilotEdge
Remarks:
Altitude:
(Current/Filed)
9,000ft
Speed:
(Current/Filed)
110kts
Departed: 14-Nov-20 02:38 PM
Arrived: 14-Nov-20 04:21 PM
Distance/Time
Traveled:
194nm/1:43
Distance/Time
To Go:
Arrived

Flight Plot

Page will automatically refresh every two minutes.

Flight plan parsing failed; only flown route is shown


Map Options




Map Legend


Flown Route
Filed Route
Departure Airport
Arrival Airport
Navaid (VOR, NDB)
Fix

Horizontal Profiles

Position Reports

Time Latitude Longitude Heading Altitude Ground
Speed
14-Nov-20 14:01 34.196507 -118.368373 90 779ft 0kts
14-Nov-20 14:02 34.196507 -118.368373 90 779ft 0kts
14-Nov-20 14:03 34.196507 -118.368373 90 779ft 0kts
14-Nov-20 14:04 34.196507 -118.368373 90 779ft 0kts
14-Nov-20 14:05 34.196507 -118.368373 90 779ft 0kts
14-Nov-20 14:06 34.196507 -118.368373 90 779ft 0kts
14-Nov-20 14:07 34.196507 -118.368373 90 779ft 0kts
14-Nov-20 14:08 34.196507 -118.368373 90 779ft 0kts
14-Nov-20 14:09 34.196507 -118.368373 90 779ft 0kts
14-Nov-20 14:10 34.196507 -118.368373 90 779ft 0kts
14-Nov-20 14:11 34.196507 -118.368373 90 779ft 0kts
14-Nov-20 14:12 34.196507 -118.368373 90 779ft 0kts
14-Nov-20 14:12 34.196507 -118.368373 90 779ft 0kts
14-Nov-20 14:14 34.196507 -118.368373 90 779ft 0kts
14-Nov-20 14:14 34.196507 -118.368373 90 779ft 0kts
14-Nov-20 14:16 34.196507 -118.368373 90 779ft 0kts
14-Nov-20 14:17 34.196507 -118.368373 90 779ft 0kts
14-Nov-20 14:17 34.196507 -118.368373 90 779ft 0kts
14-Nov-20 14:19 34.196507 -118.368373 90 779ft 0kts
14-Nov-20 14:19 34.196507 -118.368373 90 779ft 0kts
14-Nov-20 14:21 34.196507 -118.368373 90 779ft 0kts
14-Nov-20 14:21 34.196507 -118.368373 90 779ft 0kts
14-Nov-20 14:23 34.196507 -118.368373 90 779ft 0kts
14-Nov-20 14:23 34.196507 -118.368373 90 779ft 0kts
14-Nov-20 14:24 34.196507 -118.368373 90 779ft 0kts
14-Nov-20 14:25 34.196507 -118.368373 90 779ft 0kts
14-Nov-20 14:26 34.196507 -118.368373 90 779ft 0kts
14-Nov-20 14:27 34.196507 -118.368373 90 779ft 0kts
14-Nov-20 14:28 34.196507 -118.368373 90 779ft 0kts
14-Nov-20 14:29 34.196507 -118.368373 90 779ft 0kts
14-Nov-20 14:30 34.196689 -118.367126 92 779ft 12kts
14-Nov-20 14:31 34.197064 -118.368818 318 779ft 0kts
14-Nov-20 14:32 34.197064 -118.368818 318 779ft 0kts
14-Nov-20 14:33 34.197064 -118.368818 318 779ft 0kts
14-Nov-20 14:34 34.197064 -118.368818 318 779ft 0kts
14-Nov-20 14:35 34.197064 -118.368818 318 779ft 0kts
14-Nov-20 14:36 34.197533 -118.369044 358 779ft 11kts
14-Nov-20 14:37 34.197778 -118.358581 93 881ft 88kts
14-Nov-20 14:38 34.185599 -118.343196 221 1729ft 94kts
14-Nov-20 14:39 34.168300 -118.367135 230 2541ft 96kts
14-Nov-20 14:40 34.151020 -118.395531 230 3049ft 113kts
14-Nov-20 14:41 34.131840 -118.425330 227 3554ft 108kts
14-Nov-20 14:42 34.112540 -118.451915 229 4061ft 102kts
14-Nov-20 14:43 34.095372 -118.473097 225 4911ft 76kts
14-Nov-20 14:44 34.097287 -118.490352 342 5599ft 72kts
14-Nov-20 14:45 34.118101 -118.490138 350 6211ft 80kts
14-Nov-20 14:46 34.141118 -118.492599 345 6837ft 83kts
14-Nov-20 14:47 34.162591 -118.494678 346 7571ft 68kts
14-Nov-20 14:48 34.178988 -118.498927 342 8015ft 67kts
14-Nov-20 14:49 34.199864 -118.506611 358 8381ft 91kts
14-Nov-20 14:50 34.224318 -118.510118 358 9006ft 83kts
14-Nov-20 14:51 34.244363 -118.513107 353 9712ft 60kts
14-Nov-20 14:52 34.258506 -118.509237 24 9994ft 68kts
14-Nov-20 14:53 34.278930 -118.498581 18 10357ft 82kts
14-Nov-20 14:54 34.300378 -118.490143 13 10853ft 80kts
14-Nov-20 14:55 34.323532 -118.481132 16 11043ft 100kts
14-Nov-20 14:56 34.351996 -118.468773 17 11027ft 111kts
14-Nov-20 14:57 34.380201 -118.454737 40 11028ft 113kts
14-Nov-20 14:58 34.400300 -118.425103 46 11031ft 114kts
14-Nov-20 14:59 34.419639 -118.394757 47 11033ft 114kts
14-Nov-20 15:00 34.438948 -118.364079 47 11035ft 114kts
14-Nov-20 15:01 34.458230 -118.333329 47 11036ft 114kts
14-Nov-20 15:02 34.477477 -118.302593 46 11064ft 113kts
14-Nov-20 15:03 34.496683 -118.271919 46 11070ft 115kts
14-Nov-20 15:04 34.516048 -118.240934 46 11070ft 115kts
14-Nov-20 15:05 34.536077 -118.208834 46 10987ft 118kts
14-Nov-20 15:06 34.556518 -118.176052 46 10983ft 117kts
14-Nov-20 15:07 34.576097 -118.144642 46 11002ft 116kts
14-Nov-20 15:08 34.595741 -118.113088 46 10999ft 117kts
14-Nov-20 15:09 34.615411 -118.081458 46 10996ft 117kts
14-Nov-20 15:10 34.628752 -118.045043 73 10991ft 124kts
14-Nov-20 15:11 34.634762 -118.003522 71 10988ft 124kts
14-Nov-20 15:12 34.640420 -117.961989 74 10985ft 124kts
14-Nov-20 15:13 34.645201 -117.920107 75 10981ft 125kts
14-Nov-20 15:14 34.649773 -117.878251 75 10978ft 124kts
14-Nov-20 15:15 34.654270 -117.836574 75 10975ft 124kts
14-Nov-20 15:16 34.658757 -117.794766 75 10972ft 124kts
14-Nov-20 15:17 34.664993 -117.753368 66 10969ft 122kts
14-Nov-20 15:18 34.674850 -117.713821 65 10966ft 121kts
14-Nov-20 15:19 34.684857 -117.674466 65 10963ft 121kts
14-Nov-20 15:20 34.694837 -117.635339 65 10959ft 121kts
14-Nov-20 15:21 34.714481 -117.558331 65 10999ft 120kts
14-Nov-20 15:22 34.734396 -117.480077 65 10993ft 121kts
14-Nov-20 15:23 34.754263 -117.401771 65 10985ft 121kts
14-Nov-20 15:24 34.774108 -117.323329 66 10974ft 121kts
14-Nov-20 15:25 34.793931 -117.244732 66 10957ft 121kts
14-Nov-20 15:26 34.813554 -117.166739 66 11009ft 121kts
14-Nov-20 15:27 34.833329 -117.087842 66 10990ft 122kts
14-Nov-20 15:28 34.853508 -117.007171 67 10975ft 126kts
14-Nov-20 15:29 34.874136 -116.924353 69 10967ft 129kts
14-Nov-20 15:30 34.895052 -116.839886 69 10998ft 129kts
14-Nov-20 15:31 34.915903 -116.755672 68 11007ft 130kts
14-Nov-20 15:32 34.936712 -116.671292 68 11002ft 130kts
14-Nov-20 15:33 34.957452 -116.586921 67 10997ft 130kts
14-Nov-20 15:34 34.976591 -116.538910 54 10991ft 127kts
14-Nov-20 15:35 34.991065 -116.506698 54 10984ft 126kts
14-Nov-20 15:36 35.007787 -116.469138 53 10981ft 125kts
14-Nov-20 15:37 35.024365 -116.431737 53 10978ft 125kts
14-Nov-20 15:38 35.047564 -116.379288 53 10976ft 126kts
14-Nov-20 15:39 35.080761 -116.304197 53 10974ft 126kts
14-Nov-20 15:40 35.114140 -116.228411 53 10958ft 126kts
14-Nov-20 15:41 35.147270 -116.153170 53 11011ft 126kts
14-Nov-20 15:42 35.180383 -116.077628 53 11024ft 126kts
14-Nov-20 15:43 35.213526 -116.001905 53 11037ft 126kts
14-Nov-20 15:44 35.246650 -115.926071 53 11051ft 126kts
14-Nov-20 15:45 35.279633 -115.850351 53 11066ft 126kts
14-Nov-20 15:46 35.315662 -115.773858 40 11082ft 120kts
14-Nov-20 15:47 35.361866 -115.712773 39 10931ft 122kts
14-Nov-20 15:48 35.408658 -115.650143 40 10378ft 121kts
14-Nov-20 15:49 35.452672 -115.591305 39 10175ft 114kts
14-Nov-20 15:50 35.495603 -115.533839 39 10002ft 112kts
14-Nov-20 15:51 35.537026 -115.478617 38 10001ft 108kts
14-Nov-20 15:52 35.565934 -115.439817 40 9747ft 117kts
14-Nov-20 15:53 35.588167 -115.409472 40 9251ft 119kts
14-Nov-20 15:54 35.610676 -115.379000 41 8751ft 120kts
14-Nov-20 15:56 35.633806 -115.349355 39 8249ft 119kts
14-Nov-20 15:57 35.656919 -115.319866 42 7740ft 119kts
14-Nov-20 15:58 35.679202 -115.289839 43 7232ft 117kts
14-Nov-20 15:59 35.700312 -115.261302 42 7006ft 104kts
14-Nov-20 16:00 35.720319 -115.234407 43 7009ft 112kts
14-Nov-20 16:01 35.741844 -115.205168 43 7007ft 115kts
14-Nov-20 16:02 35.763529 -115.175781 42 7001ft 115kts
14-Nov-20 16:03 35.789611 -115.155635 16 6994ft 111kts
14-Nov-20 16:04 35.819498 -115.147267 11 6984ft 108kts
14-Nov-20 16:05 35.846813 -115.139429 10 7052ft 98kts
14-Nov-20 16:06 35.873260 -115.130179 13 7243ft 99kts
14-Nov-20 16:07 35.901624 -115.121399 11 6952ft 105kts
14-Nov-20 16:08 35.928732 -115.113461 11 7009ft 98kts
14-Nov-20 16:09 35.955245 -115.105660 11 6996ft 97kts
14-Nov-20 16:10 35.981732 -115.097818 11 6696ft 98kts
14-Nov-20 16:11 36.009843 -115.089773 12 6160ft 100kts
14-Nov-20 16:12 36.038782 -115.082374 12 5620ft 101kts
14-Nov-20 16:13 36.066156 -115.076588 11 5495ft 94kts
14-Nov-20 16:14 36.092788 -115.070794 14 5485ft 95kts
14-Nov-20 16:14 36.115702 -115.065301 15 5482ft 97kts
14-Nov-20 16:16 36.150577 -115.062564 318 4610ft 109kts
14-Nov-20 16:16 36.157924 -115.095905 283 4020ft 111kts
14-Nov-20 16:17 36.150948 -115.130027 205 3347ft 108kts
14-Nov-20 16:18 36.123414 -115.144096 198 2815ft 90kts
14-Nov-20 16:19 36.099976 -115.156289 201 2243ft 82kts
14-Nov-20 16:20 36.088716 -115.161666 117 2185ft 0kts
14-Nov-20 16:21 36.088716 -115.161666 117 2185ft 0kts
14-Nov-20 16:22 36.087186 -115.162127 201 2185ft 18kts
14-Nov-20 16:23 36.082380 -115.164845 202 2185ft 20kts
14-Nov-20 16:24 36.083473 -115.168150 26 2185ft 11kts
14-Nov-20 16:25 36.089894 -115.164414 24 2185ft 37kts
14-Nov-20 16:26 36.098653 -115.161893 317 2185ft 26kts

Navigation Log

Ident Type
Flight plan parsing failed, navigation log unavailable